createdAt,value
2023-04-02T00:01:27.028Z,9.72
2023-04-02T00:04:30.859Z,9.31
2023-04-02T00:07:41.502Z,9.25
2023-04-02T00:10:34.210Z,9.36
2023-04-02T00:13:48.058Z,9.57
2023-04-02T00:16:22.561Z,9.43
2023-04-02T00:18:59.447Z,9.70
2023-04-02T00:21:32.785Z,9.18
2023-04-02T00:24:07.974Z,9.29
2023-04-02T00:26:51.908Z,9.41
2023-04-02T00:29:20.210Z,9.23
2023-04-02T00:31:52.062Z,9.31
2023-04-02T00:34:37.152Z,9.24
2023-04-02T00:37:04.730Z,9.58
2023-04-02T00:39:41.952Z,9.21
2023-04-02T00:42:35.837Z,9.41
2023-04-02T00:45:43.843Z,9.49
2023-04-02T00:48:45.194Z,9.20
2023-04-02T00:51:32.499Z,9.57
2023-04-02T00:54:24.167Z,9.00
2023-04-02T00:57:05.140Z,9.31
2023-04-02T00:59:37.281Z,9.57
2023-04-02T01:02:43.767Z,9.60
2023-04-02T01:08:37.544Z,9.44
2023-04-02T01:11:39.778Z,9.62
2023-04-02T01:14:10.343Z,9.62
2023-04-02T01:17:01.147Z,9.17
2023-04-02T01:19:58.428Z,9.62
2023-04-02T01:22:50.877Z,9.54
2023-04-02T01:25:42.871Z,9.67
2023-04-02T01:28:36.442Z,9.37
2023-04-02T01:31:11.909Z,9.11
2023-04-02T01:33:42.099Z,9.48
2023-04-02T01:36:38.094Z,9.11
2023-04-02T01:39:37.108Z,9.60
2023-04-02T01:42:25.772Z,9.63
2023-04-02T01:45:03.905Z,9.31
2023-04-02T01:47:33.489Z,9.23
2023-04-02T01:50:23.172Z,9.58
2023-04-02T01:52:55.944Z,9.32
2023-04-02T01:55:59.944Z,9.59
2023-04-02T01:58:40.108Z,9.56
2023-04-02T02:01:15.886Z,9.04
2023-04-02T02:03:53.650Z,9.57
2023-04-02T02:06:21.249Z,8.96
2023-04-02T02:08:58.949Z,9.50
2023-04-02T02:11:40.406Z,9.25
2023-04-02T02:14:16.530Z,9.45
2023-04-02T02:16:45.719Z,9.20
2023-04-02T02:19:21.737Z,9.04
2023-04-02T02:21:52.353Z,9.13
2023-04-02T02:24:25.051Z,9.44
2023-04-02T02:27:17.786Z,9.37
2023-04-02T02:29:49.976Z,8.87
2023-04-02T02:32:21.315Z,8.81
2023-04-02T02:35:03.297Z,8.84
2023-04-02T02:37:35.802Z,8.62
2023-04-02T02:40:08.741Z,9.18
2023-04-02T02:42:51.643Z,8.89
2023-04-02T02:45:28.230Z,9.05
2023-04-02T02:50:44.719Z,9.15
2023-04-02T02:53:28.731Z,9.06
2023-04-02T02:56:08.591Z,8.67
2023-04-02T02:58:49.016Z,9.33
2023-04-02T03:01:25.662Z,9.34
2023-04-02T03:04:29.376Z,9.40
2023-04-02T03:07:13.466Z,8.76
2023-04-02T03:10:06.969Z,9.36
2023-04-02T03:13:25.345Z,8.75
2023-04-02T03:16:10.193Z,8.77
2023-04-02T03:18:49.236Z,9.12
2023-04-02T03:21:43.856Z,9.39
2023-04-02T03:24:11.920Z,9.27
2023-04-02T03:26:42.817Z,9.37
2023-04-02T03:29:21.865Z,9.09
2023-04-02T03:32:04.072Z,8.96
2023-04-02T03:34:50.089Z,9.08
2023-04-02T03:37:26.811Z,9.33
2023-04-02T03:40:05.195Z,9.37
2023-04-02T03:43:08.559Z,9.29
2023-04-02T03:45:47.801Z,8.60
2023-04-02T03:48:22.280Z,8.40
2023-04-02T03:50:52.868Z,8.50
2023-04-02T03:53:26.121Z,8.64
2023-04-02T03:55:54.087Z,8.40
2023-04-02T03:58:26.070Z,8.26
2023-04-02T04:01:17.003Z,8.47
2023-04-02T04:03:53.276Z,8.75
2023-04-02T04:06:30.271Z,9.07
2023-04-02T04:09:08.538Z,9.15
2023-04-02T04:11:44.586Z,8.67
2023-04-02T04:14:21.352Z,8.67
2023-04-02T04:17:14.560Z,9.00
2023-04-02T04:19:49.371Z,8.99
2023-04-02T04:22:43.834Z,8.66
2023-04-02T04:25:40.824Z,8.64
2023-04-02T04:29:01.288Z,8.31
2023-04-02T04:31:40.340Z,8.93
2023-04-02T04:34:16.979Z,8.40
2023-04-02T04:36:58.431Z,8.27
2023-04-02T04:40:07.309Z,8.44
2023-04-02T04:42:41.227Z,8.57
2023-04-02T04:45:33.432Z,8.53
2023-04-02T04:51:07.231Z,8.84
2023-04-02T04:53:42.025Z,8.83
2023-04-02T04:56:18.728Z,8.31
2023-04-02T04:58:57.461Z,8.90
2023-04-02T05:01:35.344Z,8.69
2023-04-02T05:04:20.445Z,8.88
2023-04-02T05:07:03.240Z,8.83
2023-04-02T05:09:36.618Z,8.71
2023-04-02T05:12:28.078Z,8.63
2023-04-02T05:15:11.283Z,8.44
2023-04-02T05:18:10.790Z,8.90
2023-04-02T05:20:49.308Z,8.58
2023-04-02T05:23:26.256Z,8.93
2023-04-02T05:26:13.857Z,8.73
2023-04-02T05:29:00.986Z,8.92
2023-04-02T05:31:55.565Z,8.36
2023-04-02T05:34:30.314Z,8.61
2023-04-02T05:37:03.582Z,8.72
2023-04-02T05:39:34.882Z,8.94
2023-04-02T05:42:05.965Z,8.59
2023-04-02T05:44:39.123Z,8.57
2023-04-02T05:47:19.775Z,8.89
2023-04-02T05:50:19.822Z,8.84
2023-04-02T05:52:54.299Z,8.84
2023-04-02T05:55:33.059Z,8.78
2023-04-02T05:58:34.767Z,8.50
2023-04-02T06:01:18.582Z,8.49
2023-04-02T06:04:28.728Z,8.74
2023-04-02T06:07:33.473Z,8.76
2023-04-02T06:10:30.156Z,8.76
2023-04-02T06:13:07.189Z,8.74
2023-04-02T06:15:40.167Z,8.37
2023-04-02T06:18:17.575Z,8.59
2023-04-02T06:20:51.713Z,8.63
2023-04-02T06:23:58.525Z,8.87
2023-04-02T06:26:37.364Z,8.64
2023-04-02T06:29:28.361Z,8.45
2023-04-02T06:32:05.407Z,8.13
2023-04-02T06:34:32.937Z,8.23
2023-04-02T06:37:04.476Z,7.98
2023-04-02T06:39:34.232Z,7.99
2023-04-02T06:42:13.856Z,7.94
2023-04-02T06:44:41.210Z,7.87
2023-04-02T06:47:43.183Z,7.67
2023-04-02T06:50:18.107Z,7.28
2023-04-02T06:52:52.193Z,7.48
2023-04-02T06:55:36.149Z,7.37
2023-04-02T06:58:03.346Z,7.26
2023-04-02T07:00:41.691Z,7.19
2023-04-02T07:03:19.567Z,7.01
2023-04-02T07:05:46.566Z,7.26
2023-04-02T07:08:17.427Z,7.20
2023-04-02T07:10:45.064Z,7.08
2023-04-02T07:13:23.371Z,6.96
2023-04-02T07:15:55.609Z,6.69
2023-04-02T07:18:27.547Z,7.10
2023-04-02T07:20:54.773Z,6.86
2023-04-02T07:23:21.592Z,6.97
2023-04-02T07:25:53.527Z,7.08
2023-04-02T07:28:22.522Z,7.06
2023-04-02T07:30:50.643Z,7.07
2023-04-02T07:33:20.534Z,7.13
2023-04-02T07:35:48.592Z,7.15
2023-04-02T07:38:15.295Z,7.11
2023-04-02T07:40:42.287Z,7.04
2023-04-02T07:43:08.957Z,6.91
2023-04-02T07:45:35.957Z,7.03
2023-04-02T07:48:09.941Z,6.79
2023-04-02T07:50:37.476Z,6.79
2023-04-02T07:53:07.249Z,6.97
2023-04-02T07:55:34.111Z,6.79
2023-04-02T07:58:00.942Z,6.95
2023-04-02T08:00:29.099Z,6.79
2023-04-02T08:02:58.636Z,6.93
2023-04-02T08:05:26.598Z,6.74
2023-04-02T08:07:56.925Z,6.88
2023-04-02T08:10:25.336Z,6.79
2023-04-02T08:12:52.510Z,6.58
2023-04-02T08:15:20.041Z,6.77
2023-04-02T08:17:47.264Z,6.47
2023-04-02T08:20:22.205Z,6.78
2023-04-02T08:22:50.230Z,6.62
2023-04-02T08:25:25.788Z,6.64
2023-04-02T08:27:55.982Z,6.35
2023-04-02T08:30:22.749Z,6.72
2023-04-02T08:32:50.419Z,6.38
2023-04-02T08:35:17.475Z,6.69
2023-04-02T08:37:54.353Z,6.64
2023-04-02T08:40:30.595Z,6.53
2023-04-02T08:43:25.515Z,6.51
2023-04-02T08:46:07.338Z,6.67
2023-04-02T08:48:37.714Z,6.73
2023-04-02T08:51:10.672Z,6.58
2023-04-02T08:53:42.846Z,6.83
2023-04-02T08:56:18.371Z,6.62
2023-04-02T09:23:29.615Z,7.27
2023-04-02T09:26:04.162Z,7.20
2023-04-02T09:28:34.873Z,7.27
2023-04-02T09:31:26.831Z,7.30
2023-04-02T09:33:56.029Z,7.33
2023-04-02T09:36:33.978Z,7.17
2023-04-02T09:39:19.590Z,7.29
2023-04-02T09:42:02.443Z,7.30
2023-04-02T09:47:29.920Z,7.36
2023-04-02T09:50:18.752Z,7.40
2023-04-02T09:52:47.383Z,6.77
2023-04-02T09:55:32.905Z,6.85
2023-04-02T09:58:17.567Z,7.36
2023-04-02T10:01:02.318Z,7.52
2023-04-02T10:03:38.345Z,7.62
2023-04-02T10:06:16.689Z,7.53
2023-04-02T10:08:45.863Z,7.78
2023-04-02T10:11:43.596Z,7.87
2023-04-02T10:14:23.168Z,7.58
2023-04-02T10:17:04.105Z,7.46
2023-04-02T10:19:52.732Z,7.94
2023-04-02T10:22:27.173Z,7.83
2023-04-02T10:24:56.320Z,8.00
2023-04-02T10:27:31.938Z,8.01
2023-04-02T10:30:37.678Z,7.94
2023-04-02T10:33:21.802Z,7.69
2023-04-02T10:38:45.258Z,7.49
2023-04-02T10:41:43.402Z,7.58
2023-04-02T10:44:20.494Z,7.46
2023-04-02T10:47:05.842Z,7.42
2023-04-02T10:49:51.295Z,7.55
2023-04-02T10:52:31.122Z,7.55
2023-04-02T10:55:18.508Z,7.48
2023-04-02T10:57:49.202Z,7.06
2023-04-02T11:00:30.016Z,7.00
2023-04-02T11:03:12.063Z,7.13
2023-04-02T11:06:01.630Z,7.25
2023-04-02T11:08:44.317Z,6.64
2023-04-02T11:11:29.878Z,7.30
2023-04-02T11:14:26.290Z,7.46
2023-04-02T11:16:57.405Z,7.88
2023-04-02T11:19:29.587Z,8.06
2023-04-02T11:22:20.034Z,7.98
2023-04-02T11:25:00.772Z,7.96
2023-04-02T11:27:32.978Z,8.26
2023-04-02T11:30:27.860Z,8.25
2023-04-02T11:32:56.645Z,8.07
2023-04-02T11:35:27.112Z,8.12
2023-04-02T11:37:56.286Z,7.88
2023-04-02T11:41:08.572Z,8.00
2023-04-02T11:43:41.355Z,7.98
2023-04-02T11:46:17.408Z,7.97
2023-04-02T11:48:44.881Z,7.79
2023-04-02T11:54:22.905Z,7.61
2023-04-02T12:03:49.648Z,7.36
2023-04-02T12:06:47.290Z,7.03
2023-04-02T12:09:25.805Z,7.17
2023-04-02T12:11:55.869Z,7.16
2023-04-02T12:14:43.399Z,7.10
2023-04-02T12:17:28.076Z,6.94
2023-04-02T12:20:14.081Z,7.04
2023-04-02T12:22:56.782Z,6.92
2023-04-02T12:31:19.471Z,7.33
2023-04-02T12:33:55.448Z,7.34
2023-04-02T12:36:24.299Z,7.39
2023-04-02T12:38:55.477Z,7.48
2023-04-02T12:41:39.522Z,7.07
2023-04-02T12:44:19.179Z,7.17
2023-04-02T12:46:59.655Z,7.32
2023-04-02T12:49:37.536Z,7.21
2023-04-02T12:52:10.659Z,6.98
2023-04-02T12:54:46.951Z,7.10
2023-04-02T12:57:40.471Z,6.96
2023-04-02T13:00:25.372Z,6.93
2023-04-02T13:03:18.142Z,6.79
2023-04-02T13:05:55.754Z,6.63
2023-04-02T13:08:31.011Z,6.62
2023-04-02T13:11:05.674Z,6.31
2023-04-02T13:13:47.070Z,6.65
2023-04-02T13:16:22.913Z,6.37
2023-04-02T13:18:51.318Z,6.49
2023-04-02T13:21:20.995Z,6.75
2023-04-02T13:23:47.739Z,6.83
2023-04-02T13:26:24.643Z,6.74
2023-04-02T13:29:00.960Z,6.68
2023-04-02T13:31:30.222Z,6.62
2023-04-02T13:33:59.315Z,6.77
2023-04-02T13:36:30.972Z,6.76
2023-04-02T13:38:59.371Z,6.75
2023-04-02T13:41:33.558Z,6.67
2023-04-02T13:44:04.191Z,6.60
2023-04-02T13:46:34.076Z,6.77
2023-04-02T13:49:01.620Z,6.69
2023-04-02T13:51:56.595Z,6.83
2023-04-02T13:54:36.985Z,6.98
2023-04-02T13:57:06.225Z,7.00
2023-04-02T13:59:34.749Z,6.95
2023-04-02T14:02:10.819Z,6.93
2023-04-02T14:04:45.113Z,6.88
2023-04-02T14:07:46.987Z,6.89
2023-04-02T14:10:37.420Z,6.99
2023-04-02T14:13:42.872Z,7.08
2023-04-02T14:16:25.398Z,6.92
2023-04-02T14:19:21.065Z,6.59
2023-04-02T14:21:53.940Z,6.45
2023-04-02T14:24:39.229Z,6.50
2023-04-02T14:27:21.677Z,6.61
2023-04-02T14:30:05.810Z,6.38
2023-04-02T14:32:59.006Z,6.46
2023-04-02T14:35:51.651Z,6.41
2023-04-02T14:38:55.384Z,6.36
2023-04-02T14:41:37.804Z,6.33
2023-04-02T14:44:09.078Z,6.27
2023-04-02T14:46:39.309Z,6.28
2023-04-02T14:49:09.313Z,6.02
2023-04-02T14:51:43.821Z,6.12
2023-04-02T14:54:34.649Z,6.18
2023-04-02T14:57:17.869Z,6.12
2023-04-02T14:59:54.423Z,5.90
2023-04-02T15:02:45.152Z,6.01
2023-04-02T15:05:22.602Z,6.05
2023-04-02T15:07:59.395Z,6.09
2023-04-02T15:10:41.244Z,5.61
2023-04-02T15:13:21.516Z,6.22
2023-04-02T15:15:59.546Z,6.28
2023-04-02T15:18:27.023Z,6.23
2023-04-02T15:21:29.661Z,6.13
2023-04-02T15:24:01.853Z,5.97
2023-04-02T15:26:59.764Z,5.95
2023-04-02T15:29:49.200Z,5.93
2023-04-02T15:32:35.588Z,5.95
2023-04-02T15:35:18.187Z,5.85
2023-04-02T15:37:50.308Z,5.93
2023-04-02T15:40:36.153Z,5.89
2023-04-02T15:43:27.282Z,5.83
2023-04-02T15:46:08.894Z,5.92
2023-04-02T15:48:52.196Z,5.57
2023-04-02T15:51:40.019Z,5.82
2023-04-02T15:54:37.105Z,5.95
2023-04-02T15:57:51.932Z,5.93
2023-04-02T16:00:34.735Z,5.91
2023-04-02T16:03:41.617Z,6.05
2023-04-02T16:06:19.433Z,6.11
2023-04-02T16:09:07.448Z,6.08
2023-04-02T16:11:34.685Z,6.22
2023-04-02T16:14:15.966Z,6.24
2023-04-02T16:16:47.057Z,6.29
2023-04-02T16:19:23.737Z,6.36
2023-04-02T16:22:09.500Z,6.17
2023-04-02T16:24:38.210Z,6.28
2023-04-02T16:27:18.956Z,6.04
2023-04-02T16:30:16.773Z,6.22
2023-04-02T16:36:44.204Z,6.09
2023-04-02T16:39:35.352Z,5.90
2023-04-02T16:42:15.444Z,5.87
2023-04-02T16:44:46.575Z,5.95
2023-04-02T17:38:44.752Z,5.48
2023-04-02T17:41:34.788Z,5.16
2023-04-02T17:47:40.560Z,5.42
2023-04-02T17:53:32.108Z,5.36
2023-04-02T17:56:30.680Z,5.27
2023-04-02T18:03:07.220Z,5.42
2023-04-02T18:06:21.192Z,5.42
2023-04-02T18:12:51.470Z,5.06
2023-04-02T18:15:48.889Z,5.30
2023-04-02T18:18:56.511Z,4.96
2023-04-02T18:21:57.733Z,5.33
2023-04-02T18:24:47.296Z,5.29
2023-04-02T18:27:55.808Z,5.25
2023-04-02T18:30:48.532Z,5.31
2023-04-02T18:33:35.994Z,5.27
2023-04-02T18:42:47.055Z,5.38
2023-04-02T18:48:47.294Z,5.16
2023-04-02T18:58:00.209Z,5.39
2023-04-02T19:03:56.728Z,5.34
2023-04-02T19:06:30.215Z,5.36
2023-04-02T19:24:28.521Z,5.29
2023-04-02T19:30:34.063Z,5.16
2023-04-02T19:49:44.543Z,5.05
2023-04-02T19:52:13.370Z,5.39
2023-04-02T19:58:04.528Z,5.31
2023-04-02T20:00:59.797Z,5.19
2023-04-02T20:09:52.844Z,4.69
2023-04-02T20:12:53.598Z,5.30
2023-04-02T20:18:16.289Z,4.98
2023-04-02T20:23:47.838Z,5.02
2023-04-02T20:26:16.652Z,4.70
2023-04-02T20:28:44.088Z,4.97
2023-04-02T20:31:12.602Z,4.46
2023-04-02T20:33:46.257Z,4.83
2023-04-02T20:36:18.947Z,4.78
2023-04-02T20:38:46.457Z,4.58
2023-04-02T20:41:16.499Z,4.48
2023-04-02T20:43:53.289Z,4.42
2023-04-02T20:49:17.868Z,4.55
2023-04-02T20:51:48.677Z,4.36
2023-04-02T20:54:21.987Z,4.58
2023-04-02T20:59:36.051Z,4.21
2023-04-02T21:02:06.155Z,4.70
2023-04-02T21:04:34.587Z,4.54
2023-04-02T21:07:03.984Z,4.77
2023-04-02T21:09:31.015Z,4.79
2023-04-02T21:11:57.970Z,4.65
2023-04-02T21:14:25.142Z,4.66
2023-04-02T21:16:58.494Z,4.58
2023-04-02T21:19:29.440Z,4.83
2023-04-02T21:24:40.941Z,4.91
2023-04-02T21:27:09.256Z,4.89
2023-04-02T21:32:52.819Z,4.23
2023-04-02T21:35:26.062Z,4.58
2023-04-02T21:44:01.157Z,4.79
2023-04-02T21:46:38.113Z,4.52
2023-04-02T21:49:06.594Z,4.68
2023-04-02T21:51:35.916Z,4.49
2023-04-02T21:54:09.014Z,4.70
2023-04-02T21:56:39.515Z,4.64
2023-04-02T21:59:09.441Z,4.68
2023-04-02T22:01:50.015Z,4.48
2023-04-02T22:04:21.169Z,4.61
2023-04-02T22:06:49.547Z,4.50
2023-04-02T22:09:19.361Z,4.55
2023-04-02T22:11:48.242Z,4.53
2023-04-02T22:14:16.982Z,4.48
2023-04-02T22:16:46.102Z,4.60
2023-04-02T22:19:19.872Z,4.52
2023-04-02T22:21:51.801Z,4.56
2023-04-02T22:24:24.219Z,4.59
2023-04-02T22:26:51.469Z,4.57
2023-04-02T22:29:18.363Z,4.59
2023-04-02T22:31:48.983Z,4.46
2023-04-02T22:34:15.947Z,4.44
2023-04-02T22:36:43.260Z,4.46
2023-04-02T22:39:15.748Z,4.53
2023-04-02T22:41:46.781Z,4.54
2023-04-02T22:44:15.444Z,4.54
2023-04-02T22:46:44.996Z,4.58
2023-04-02T22:49:12.463Z,4.56
2023-04-02T22:51:40.114Z,4.66
2023-04-02T22:54:06.968Z,4.64
2023-04-02T22:56:36.163Z,4.59
2023-04-02T22:59:03.537Z,4.59
2023-04-02T23:01:36.117Z,4.65
2023-04-02T23:04:05.028Z,4.54
2023-04-02T23:06:32.329Z,4.45
2023-04-02T23:09:03.268Z,4.45
2023-04-02T23:11:30.101Z,4.35
2023-04-02T23:13:59.378Z,4.51
2023-04-02T23:16:29.307Z,4.51
2023-04-02T23:19:00.535Z,4.39
2023-04-02T23:21:28.252Z,4.43
2023-04-02T23:23:55.116Z,4.50
2023-04-02T23:26:32.953Z,4.54
2023-04-02T23:29:01.927Z,4.37
2023-04-02T23:31:29.826Z,4.45
2023-04-02T23:33:56.545Z,4.49
2023-04-02T23:36:29.526Z,4.51
2023-04-02T23:39:03.557Z,4.55
2023-04-02T23:41:38.857Z,4.50
2023-04-02T23:44:06.478Z,4.34
2023-04-02T23:46:34.388Z,4.45
2023-04-02T23:49:02.155Z,4.25
2023-04-02T23:51:32.042Z,4.30
2023-04-02T23:53:58.695Z,4.52
2023-04-02T23:56:28.522Z,4.48
2023-04-02T23:58:58.131Z,4.30
